createdAt,value
2023-01-18T00:00:14.925Z,7.55
2023-01-18T00:02:47.194Z,2.70
2023-01-18T00:05:17.252Z,4.07
2023-01-18T00:07:47.158Z,5.63
2023-01-18T00:10:19.178Z,7.22
2023-01-18T00:12:49.080Z,6.03
2023-01-18T00:15:19.628Z,6.15
2023-01-18T00:17:51.920Z,4.68
2023-01-18T00:20:24.417Z,6.13
2023-01-18T00:22:55.554Z,5.53
2023-01-18T00:25:27.540Z,3.83
2023-01-18T00:27:59.498Z,4.15
2023-01-18T00:30:32.338Z,5.30
2023-01-18T00:33:02.113Z,5.70
2023-01-18T00:35:32.578Z,4.05
2023-01-18T00:38:02.393Z,3.80
2023-01-18T00:40:34.044Z,2.95
2023-01-18T00:43:21.245Z,4.30
2023-01-18T00:45:51.213Z,9.07
2023-01-18T00:50:41.883Z,8.00
2023-01-18T00:53:11.880Z,6.55
2023-01-18T00:55:41.756Z,9.00
2023-01-18T00:58:11.623Z,8.20
2023-01-18T01:00:42.419Z,13.40
2023-01-18T01:03:13.461Z,6.30
2023-01-18T01:06:02.258Z,6.57
2023-01-18T01:08:32.208Z,9.40
2023-01-18T01:11:12.700Z,6.88
2023-01-18T01:13:59.562Z,6.03
2023-01-18T01:16:46.877Z,4.75
2023-01-18T01:19:33.778Z,5.68
2023-01-18T01:22:21.917Z,3.58
2023-01-18T01:25:09.031Z,6.35
2023-01-18T01:27:39.019Z,5.53
2023-01-18T01:30:11.180Z,8.85
2023-01-18T01:32:41.159Z,6.18
2023-01-18T01:35:12.018Z,4.90
2023-01-18T01:37:43.299Z,5.65
2023-01-18T01:40:14.981Z,5.45
2023-01-18T01:42:45.018Z,2.88
2023-01-18T01:45:14.878Z,5.05
2023-01-18T01:47:47.319Z,4.63
2023-01-18T01:50:23.697Z,3.35
2023-01-18T01:52:55.761Z,7.10
2023-01-18T01:55:32.128Z,4.60
2023-01-18T01:58:07.039Z,3.17
2023-01-18T02:00:37.980Z,6.18
2023-01-18T02:03:10.851Z,1.75
2023-01-18T02:05:47.341Z,2.78
2023-01-18T02:08:22.898Z,2.28
2023-01-18T02:10:53.999Z,2.60
2023-01-18T02:13:25.257Z,7.50
2023-01-18T02:16:10.103Z,3.80
2023-01-18T02:18:49.445Z,8.38
2023-01-18T02:21:21.302Z,6.32
2023-01-18T02:24:45.118Z,8.20
2023-01-18T02:27:24.239Z,6.35
2023-01-18T02:30:13.537Z,15.73
2023-01-18T02:33:07.446Z,10.05
2023-01-18T02:35:49.017Z,7.57
2023-01-18T02:38:25.348Z,9.82
2023-01-18T02:41:12.770Z,9.40
2023-01-18T02:44:02.604Z,11.02
2023-01-18T02:46:35.564Z,6.68
2023-01-18T02:49:09.989Z,13.43
2023-01-18T02:51:40.442Z,7.75
2023-01-18T02:54:12.559Z,8.88
2023-01-18T02:56:47.196Z,5.40
2023-01-18T02:59:22.856Z,9.52
2023-01-18T03:01:59.265Z,7.45
2023-01-18T03:04:35.219Z,4.38
2023-01-18T03:07:12.527Z,4.50
2023-01-18T03:09:45.522Z,8.13
2023-01-18T03:12:26.562Z,5.10
2023-01-18T03:15:05.308Z,5.50
2023-01-18T03:17:43.619Z,6.78
2023-01-18T03:20:17.818Z,5.20
2023-01-18T03:23:11.861Z,4.20
2023-01-18T03:25:45.210Z,2.55
2023-01-18T03:28:37.157Z,6.55
2023-01-18T03:31:29.121Z,4.10
2023-01-18T03:34:10.201Z,7.85
2023-01-18T03:36:45.119Z,5.85
2023-01-18T03:39:21.459Z,10.65
2023-01-18T03:41:57.879Z,6.13
2023-01-18T03:44:34.103Z,4.88
2023-01-18T03:47:05.219Z,7.20
2023-01-18T03:52:10.277Z,6.93
2023-01-18T03:54:53.258Z,5.32
2023-01-18T03:59:58.759Z,1.95
2023-01-18T04:02:30.824Z,5.43
2023-01-18T04:05:04.200Z,4.87
2023-01-18T04:07:36.224Z,2.63
2023-01-18T04:10:06.859Z,7.63
2023-01-18T04:12:36.801Z,22.00
2023-01-18T04:15:08.240Z,10.00
2023-01-18T04:17:38.198Z,15.25
2023-01-18T04:20:10.410Z,13.25
2023-01-18T04:22:41.780Z,13.02
2023-01-18T04:25:12.533Z,11.25
2023-01-18T04:27:42.498Z,8.75
2023-01-18T04:30:13.855Z,11.65
2023-01-18T04:32:46.539Z,6.57
2023-01-18T04:35:17.022Z,8.38
2023-01-18T04:37:54.516Z,8.63
2023-01-18T04:40:24.181Z,11.65
2023-01-18T04:42:56.136Z,5.10
2023-01-18T04:45:26.341Z,10.18
2023-01-18T04:47:56.178Z,16.13
2023-01-18T04:50:26.650Z,6.60
2023-01-18T04:52:58.261Z,22.10
2023-01-18T04:55:28.481Z,16.95
2023-01-18T04:57:59.717Z,7.55
2023-01-18T05:00:29.652Z,8.65
2023-01-18T05:02:59.759Z,9.30
2023-01-18T05:05:29.880Z,12.05
2023-01-18T05:08:01.286Z,5.88
2023-01-18T05:10:31.457Z,5.32
2023-01-18T05:13:01.767Z,12.43
2023-01-18T05:15:32.037Z,13.45
2023-01-18T05:18:01.984Z,11.88
2023-01-18T05:20:31.882Z,9.25
2023-01-18T05:23:11.418Z,10.75
2023-01-18T05:25:41.492Z,90.18
2023-01-18T05:28:12.168Z,10.30
2023-01-18T05:30:43.521Z,9.40
2023-01-18T05:33:13.483Z,101.10
2023-01-18T05:35:43.297Z,25.55
2023-01-18T05:38:14.702Z,18.08
2023-01-18T05:40:46.259Z,32.90
2023-01-18T05:43:16.781Z,16.85
2023-01-18T05:45:46.891Z,21.10
2023-01-18T05:48:17.325Z,11.82
2023-01-18T05:50:49.361Z,49.63
2023-01-18T05:53:23.236Z,65.17
2023-01-18T05:56:01.988Z,49.50
2023-01-18T05:58:32.502Z,43.50
2023-01-18T06:01:02.490Z,18.52
2023-01-18T06:03:32.507Z,19.05
2023-01-18T06:06:02.450Z,26.10
2023-01-18T06:08:34.277Z,20.00
2023-01-18T06:11:04.714Z,19.23
2023-01-18T06:13:35.192Z,30.98
2023-01-18T06:16:06.397Z,33.67
2023-01-18T06:18:38.778Z,17.75
2023-01-18T06:21:11.157Z,17.38
2023-01-18T06:23:42.474Z,17.58
2023-01-18T06:26:12.302Z,5.65
2023-01-18T06:28:42.190Z,17.15
2023-01-18T06:31:11.992Z,12.57
2023-01-18T06:33:41.898Z,10.52
2023-01-18T06:36:12.161Z,10.80
2023-01-18T06:38:43.678Z,9.15
2023-01-18T06:41:13.603Z,5.50
2023-01-18T06:43:43.559Z,4.72
2023-01-18T06:46:13.509Z,6.10
2023-01-18T06:51:42.098Z,10.68
2023-01-18T06:54:12.279Z,7.97
2023-01-18T06:56:42.378Z,8.00
2023-01-18T06:59:12.384Z,5.82
2023-01-18T07:01:42.302Z,9.45
2023-01-18T07:04:12.488Z,5.65
2023-01-18T07:06:43.840Z,5.53
2023-01-18T07:09:14.003Z,11.13
2023-01-18T07:11:44.476Z,8.13
2023-01-18T07:14:15.108Z,7.00
2023-01-18T07:16:44.864Z,5.47
2023-01-18T07:19:16.704Z,6.07
2023-01-18T07:21:48.603Z,10.27
2023-01-18T07:24:18.639Z,10.10
2023-01-18T07:26:48.619Z,6.82
2023-01-18T07:29:18.498Z,10.45
2023-01-18T07:31:48.416Z,9.13
2023-01-18T07:34:18.338Z,8.45
2023-01-18T07:36:49.679Z,6.47
2023-01-18T07:39:19.588Z,6.80
2023-01-18T07:41:49.700Z,12.57
2023-01-18T07:44:19.826Z,6.22
2023-01-18T07:46:49.657Z,4.80
2023-01-18T07:49:19.719Z,6.93
2023-01-18T07:51:51.083Z,9.55
2023-01-18T07:54:21.242Z,5.60
2023-01-18T07:56:51.500Z,8.32
2023-01-18T07:59:21.362Z,9.07
2023-01-18T08:01:51.348Z,8.52
2023-01-18T08:04:21.438Z,9.07
2023-01-18T08:06:52.882Z,7.78
2023-01-18T08:09:22.753Z,5.35
2023-01-18T08:11:52.682Z,6.40
2023-01-18T08:14:22.827Z,6.15
2023-01-18T08:16:52.786Z,8.05
2023-01-18T08:19:22.586Z,9.93
2023-01-18T08:21:53.909Z,7.38
2023-01-18T08:24:23.880Z,8.38
2023-01-18T08:26:53.779Z,5.80
2023-01-18T08:29:23.777Z,6.53
2023-01-18T08:31:54.592Z,6.93
2023-01-18T08:34:24.479Z,7.88
2023-01-18T08:36:55.700Z,6.22
2023-01-18T08:39:25.654Z,6.15
2023-01-18T08:41:55.482Z,7.78
2023-01-18T08:44:25.460Z,8.40
2023-01-18T08:46:55.265Z,15.35
2023-01-18T08:49:25.199Z,8.27
2023-01-18T08:51:57.158Z,6.65
2023-01-18T08:54:27.139Z,5.97
2023-01-18T08:56:57.149Z,10.90
2023-01-18T08:59:27.008Z,5.03
2023-01-18T09:01:57.514Z,6.40
2023-01-18T09:04:28.321Z,4.32
2023-01-18T09:06:59.815Z,5.00
2023-01-18T09:09:29.763Z,6.55
2023-01-18T09:12:00.076Z,7.18
2023-01-18T09:14:29.882Z,6.18
2023-01-18T09:16:59.758Z,4.40
2023-01-18T09:19:29.708Z,5.55
2023-01-18T09:22:01.179Z,6.25
2023-01-18T09:24:31.038Z,5.55
2023-01-18T09:27:00.999Z,7.35
2023-01-18T09:29:31.530Z,5.70
2023-01-18T09:32:01.560Z,3.97
2023-01-18T09:34:31.578Z,5.45
2023-01-18T09:37:02.948Z,7.20
2023-01-18T09:39:40.267Z,4.07
2023-01-18T09:42:24.440Z,3.83
2023-01-18T09:44:57.301Z,7.85
2023-01-18T09:47:30.762Z,5.47
2023-01-18T09:51:58.864Z,3.45
2023-01-18T09:54:41.510Z,3.47
2023-01-18T09:57:24.938Z,6.35
2023-01-18T09:59:59.546Z,5.95
2023-01-18T10:02:39.495Z,6.72
2023-01-18T10:05:15.653Z,4.70
2023-01-18T10:08:02.817Z,6.80
2023-01-18T10:10:39.833Z,3.83
2023-01-18T10:13:40.900Z,10.43
2023-01-18T10:16:18.656Z,3.95
2023-01-18T10:18:51.979Z,4.57
2023-01-18T10:21:31.500Z,4.40
2023-01-18T10:24:32.799Z,4.57
2023-01-18T10:27:43.900Z,7.10
2023-01-18T10:30:34.438Z,4.10
2023-01-18T10:33:18.634Z,4.05
2023-01-18T10:35:51.779Z,5.68
2023-01-18T10:38:25.799Z,6.25
2023-01-18T10:41:01.699Z,5.47
2023-01-18T10:43:33.284Z,7.05
2023-01-18T10:46:03.287Z,4.50
2023-01-18T10:48:35.311Z,4.45
2023-01-18T10:51:09.011Z,3.42
2023-01-18T10:53:40.780Z,4.32
2023-01-18T10:56:20.079Z,10.40
2023-01-18T10:59:00.416Z,5.72
2023-01-18T11:01:33.735Z,4.57
2023-01-18T11:04:07.923Z,7.32
2023-01-18T11:06:48.625Z,13.82
2023-01-18T11:09:44.443Z,7.18
2023-01-18T11:12:37.640Z,7.80
2023-01-18T11:15:30.380Z,7.10
2023-01-18T11:18:12.294Z,6.80
2023-01-18T11:20:50.440Z,5.57
2023-01-18T11:23:25.717Z,5.22
2023-01-18T11:26:01.727Z,3.05
2023-01-18T11:28:40.949Z,7.93
2023-01-18T11:31:14.339Z,4.22
2023-01-18T11:33:53.124Z,3.92
2023-01-18T11:36:36.801Z,6.13
2023-01-18T11:39:37.753Z,6.13
2023-01-18T11:42:24.221Z,6.25
2023-01-18T11:45:15.746Z,6.38
2023-01-18T11:48:02.652Z,3.85
2023-01-18T11:50:42.837Z,6.57
2023-01-18T11:53:28.443Z,9.65
2023-01-18T11:56:06.805Z,7.38
2023-01-18T11:58:38.737Z,5.07
2023-01-18T12:01:49.326Z,4.60
2023-01-18T12:04:33.607Z,6.95
2023-01-18T12:07:18.819Z,4.47
2023-01-18T12:09:54.802Z,5.45
2023-01-18T12:12:47.899Z,7.38
2023-01-18T12:15:52.280Z,16.67
2023-01-18T12:18:42.857Z,12.40
2023-01-18T12:21:16.402Z,7.63
2023-01-18T12:24:19.379Z,12.27
2023-01-18T12:26:56.950Z,10.27
2023-01-18T12:30:04.041Z,10.35
2023-01-18T12:32:58.082Z,8.07
2023-01-18T12:35:58.064Z,7.45
2023-01-18T12:38:33.277Z,7.93
2023-01-18T12:41:28.833Z,8.45
2023-01-18T12:44:22.543Z,3.80
2023-01-18T12:47:10.600Z,8.50
2023-01-18T12:51:43.678Z,6.93
2023-01-18T12:54:21.793Z,8.38
2023-01-18T12:56:55.837Z,7.03
2023-01-18T12:59:30.818Z,6.03
2023-01-18T13:02:12.514Z,9.38
2023-01-18T13:04:50.203Z,10.73
2023-01-18T13:07:30.778Z,8.27
2023-01-18T13:10:01.297Z,14.60
2023-01-18T13:12:32.159Z,8.65
2023-01-18T13:15:06.841Z,8.10
2023-01-18T13:17:47.037Z,7.30
2023-01-18T13:20:21.227Z,6.97
2023-01-18T13:23:09.677Z,4.70
2023-01-18T13:25:52.500Z,10.30
2023-01-18T13:28:25.088Z,9.85
2023-01-18T13:33:35.299Z,8.95
2023-01-18T13:36:09.461Z,8.85
2023-01-18T13:38:51.179Z,7.85
2023-01-18T13:41:26.320Z,11.07
2023-01-18T13:44:06.301Z,7.43
2023-01-18T13:46:39.711Z,14.32
2023-01-18T13:49:38.041Z,14.40
2023-01-18T13:52:32.836Z,13.77
2023-01-18T13:55:24.824Z,22.38
2023-01-18T13:57:57.409Z,14.82
2023-01-18T14:00:29.502Z,11.15
2023-01-18T14:03:06.697Z,15.07
2023-01-18T14:05:44.111Z,17.98
2023-01-18T14:08:22.601Z,16.10
2023-01-18T14:10:56.638Z,8.48
2023-01-18T14:14:05.799Z,14.57
2023-01-18T14:16:38.600Z,14.30
2023-01-18T14:19:19.282Z,12.80
2023-01-18T14:22:21.378Z,17.00
2023-01-18T14:25:17.517Z,20.40
2023-01-18T14:27:57.387Z,13.65
2023-01-18T14:30:31.618Z,17.98
2023-01-18T14:33:06.741Z,15.07
2023-01-18T14:35:36.843Z,12.40
2023-01-18T14:38:18.326Z,13.98
2023-01-18T14:40:50.456Z,20.17
2023-01-18T14:43:28.861Z,17.73
2023-01-18T14:46:03.129Z,18.45
2023-01-18T14:48:37.000Z,18.05
2023-01-18T14:51:07.447Z,21.92
2023-01-18T14:53:44.858Z,25.15
2023-01-18T14:56:22.358Z,13.07
2023-01-18T14:58:59.406Z,23.13
2023-01-18T15:01:33.885Z,12.07
2023-01-18T15:04:07.214Z,14.32
2023-01-18T15:06:43.107Z,17.63
2023-01-18T15:09:14.398Z,18.98
2023-01-18T15:11:46.839Z,12.57
2023-01-18T15:14:23.177Z,9.18
2023-01-18T15:16:56.827Z,11.93
2023-01-18T15:19:36.227Z,10.38
2023-01-18T15:22:08.307Z,9.82
2023-01-18T15:24:42.978Z,10.40
2023-01-18T15:27:16.091Z,8.23
2023-01-18T15:29:53.892Z,13.32
2023-01-18T15:32:25.861Z,17.05
2023-01-18T15:34:58.188Z,8.70
2023-01-18T15:37:30.782Z,15.73
2023-01-18T15:42:39.269Z,8.73
2023-01-18T15:45:22.893Z,10.40
2023-01-18T15:47:55.539Z,7.90
2023-01-18T15:51:57.529Z,11.18
2023-01-18T15:54:30.040Z,11.45
2023-01-18T15:57:13.999Z,7.45
2023-01-18T15:59:44.958Z,12.35
2023-01-18T16:02:21.687Z,11.20
2023-01-18T16:04:51.680Z,13.10
2023-01-18T16:07:42.273Z,9.98
2023-01-18T16:10:31.758Z,13.88
2023-01-18T16:13:33.461Z,9.25
2023-01-18T16:16:16.930Z,5.60
2023-01-18T16:18:51.641Z,15.30
2023-01-18T16:21:40.759Z,24.23
2023-01-18T16:24:37.385Z,9.20
2023-01-18T16:27:12.844Z,12.88
2023-01-18T16:29:46.149Z,17.75
2023-01-18T16:32:32.365Z,17.65
2023-01-18T16:35:04.894Z,15.18
2023-01-18T16:37:34.722Z,20.55
2023-01-18T16:40:10.399Z,15.90
2023-01-18T16:43:01.713Z,16.65
2023-01-18T16:45:35.591Z,18.52
2023-01-18T16:48:06.092Z,20.58
2023-01-18T16:50:36.137Z,22.95
2023-01-18T16:53:06.121Z,27.95
2023-01-18T16:55:38.478Z,24.88
2023-01-18T16:58:08.366Z,25.95
2023-01-18T17:00:51.901Z,18.73
2023-01-18T17:03:22.052Z,18.48
2023-01-18T17:05:52.138Z,26.92
2023-01-18T17:08:22.845Z,22.38
2023-01-18T17:10:56.246Z,25.77
2023-01-18T17:13:26.543Z,23.48
2023-01-18T17:15:56.519Z,25.70
2023-01-18T17:18:28.223Z,18.80
2023-01-18T17:20:58.429Z,29.02
2023-01-18T17:23:28.446Z,19.70
2023-01-18T17:26:00.113Z,22.83
2023-01-18T17:28:30.442Z,41.35
2023-01-18T17:31:00.527Z,23.75
2023-01-18T17:33:30.920Z,21.55
2023-01-18T17:36:00.783Z,32.05
2023-01-18T17:41:02.161Z,25.55
2023-01-18T17:43:34.285Z,25.50
2023-01-18T17:46:06.776Z,25.83
2023-01-18T17:48:36.888Z,27.77
2023-01-18T17:51:08.867Z,29.20
2023-01-18T17:53:39.398Z,29.80
2023-01-18T17:56:12.856Z,29.10
2023-01-18T17:58:43.317Z,30.98
2023-01-18T18:01:15.545Z,27.05
2023-01-18T18:03:50.836Z,37.30
2023-01-18T18:06:30.731Z,29.73
2023-01-18T18:09:01.635Z,32.00
2023-01-18T18:11:34.100Z,37.15
2023-01-18T18:14:08.577Z,52.40
2023-01-18T18:16:43.567Z,39.17
2023-01-18T18:19:15.010Z,34.17
2023-01-18T18:21:45.537Z,32.63
2023-01-18T18:24:15.420Z,37.60
2023-01-18T18:26:46.802Z,26.65
2023-01-18T18:29:16.718Z,27.00
2023-01-18T18:31:47.681Z,30.00
2023-01-18T18:34:18.868Z,40.60
2023-01-18T18:36:48.742Z,33.83
2023-01-18T18:39:18.761Z,34.17
2023-01-18T18:41:50.397Z,25.20
2023-01-18T18:44:20.239Z,32.90
2023-01-18T18:46:50.294Z,35.47
2023-01-18T18:51:41.720Z,26.25
2023-01-18T18:54:13.578Z,32.33
2023-01-18T18:56:43.540Z,39.67
2023-01-18T18:59:13.677Z,28.65
2023-01-18T19:01:43.580Z,32.58
2023-01-18T19:04:13.498Z,33.05
2023-01-18T19:06:44.798Z,23.80
2023-01-18T19:09:14.964Z,27.50
2023-01-18T19:11:54.369Z,30.25
2023-01-18T19:14:26.106Z,26.67
2023-01-18T19:16:56.198Z,29.42
2023-01-18T19:19:26.962Z,32.13
2023-01-18T19:21:58.445Z,35.47
2023-01-18T19:24:32.102Z,31.95
2023-01-18T19:27:01.959Z,25.45
2023-01-18T19:29:31.899Z,32.33
2023-01-18T19:32:01.759Z,29.52
2023-01-18T19:34:31.542Z,37.13
2023-01-18T19:37:02.960Z,30.10
2023-01-18T19:39:35.042Z,26.95
2023-01-18T19:42:07.139Z,38.35
2023-01-18T19:44:37.069Z,23.70
2023-01-18T19:47:07.628Z,36.35
2023-01-18T19:49:37.600Z,33.83
2023-01-18T19:52:09.066Z,33.03
2023-01-18T19:54:38.900Z,32.45
2023-01-18T19:57:09.080Z,31.48
2023-01-18T22:08:55.860Z,22.73
2023-01-18T22:11:26.159Z,17.13
2023-01-18T22:13:56.056Z,20.10
2023-01-18T22:16:30.248Z,31.52
2023-01-18T22:19:00.656Z,31.15
2023-01-18T22:21:31.138Z,23.08
2023-01-18T22:24:02.656Z,30.27
2023-01-18T22:26:36.133Z,31.20
2023-01-18T22:29:06.378Z,31.77
2023-01-18T22:31:36.308Z,27.92
2023-01-18T22:34:07.919Z,19.58
2023-01-18T22:36:37.702Z,19.60
2023-01-18T22:39:09.993Z,22.52
2023-01-18T22:41:40.724Z,32.35
2023-01-18T22:44:11.141Z,27.15
2023-01-18T22:46:40.760Z,35.63
2023-01-18T22:49:10.678Z,38.15
2023-01-18T22:51:40.541Z,26.88
2023-01-18T22:54:11.754Z,22.15
2023-01-18T22:56:41.639Z,24.77
2023-01-18T22:59:11.341Z,24.48
2023-01-18T23:01:41.154Z,24.13
2023-01-18T23:04:12.214Z,18.42
2023-01-18T23:06:48.280Z,19.10
2023-01-18T23:09:20.302Z,14.63
2023-01-18T23:11:51.883Z,20.47
2023-01-18T23:14:41.335Z,12.80
2023-01-18T23:17:30.462Z,17.10
2023-01-18T23:20:00.252Z,7.80
2023-01-18T23:22:30.002Z,9.20
2023-01-18T23:25:01.458Z,18.63
2023-01-18T23:27:31.555Z,18.30
2023-01-18T23:30:01.774Z,16.30
2023-01-18T23:32:31.942Z,12.73
2023-01-18T23:35:02.725Z,12.73
2023-01-18T23:37:33.038Z,12.07
2023-01-18T23:40:21.655Z,11.57
2023-01-18T23:43:11.654Z,9.32
2023-01-18T23:45:58.681Z,13.40
2023-01-18T23:48:45.637Z,9.77
2023-01-18T23:51:32.648Z,14.50
2023-01-18T23:54:14.355Z,15.10
2023-01-18T23:56:46.437Z,14.48
2023-01-18T23:59:16.318Z,14.30
